createdAt,value
2018-01-01T00:00:23.576Z,6.17
2018-01-01T00:00:27.842Z,6.14
2018-01-01T00:00:31.933Z,6.11
2018-01-01T00:00:35.736Z,6.14
2018-01-01T00:00:39.746Z,6.1
2018-01-01T00:00:43.648Z,6.14
2018-01-01T00:00:47.431Z,6.16
2018-01-01T00:00:51.351Z,6.11
2018-01-01T00:00:55.144Z,6.08
2018-01-01T00:00:59.045Z,6.14
2018-01-01T00:01:03.208Z,6.05
2018-01-01T00:01:07.122Z,6.1
2018-01-01T00:01:11.028Z,6.1
2018-01-01T00:01:14.925Z,6.14
2018-01-01T00:01:18.724Z,6.17
2018-01-01T00:01:22.535Z,6.11
2018-01-01T00:01:26.449Z,6.1
2018-01-01T00:01:30.571Z,6.11
2018-01-01T00:01:34.375Z,6.06
2018-01-01T00:01:38.274Z,6.11
2018-01-01T00:01:42.193Z,6.11
2018-01-01T00:01:46.012Z,6.11
2018-01-01T00:01:50.024Z,6.08
2018-01-01T00:01:53.827Z,6.1
2018-01-01T00:01:57.838Z,6.14
2018-01-01T00:02:01.752Z,6.14
2018-01-01T00:02:05.982Z,6.08
2018-01-01T00:02:09.802Z,6.08
2018-01-01T00:02:13.706Z,6.06
2018-01-01T00:02:17.513Z,6.05
2018-01-01T00:02:21.201Z,6.1
2018-01-01T00:02:25.426Z,6.11
2018-01-01T00:02:29.339Z,6.13
2018-01-01T00:02:33.381Z,6.11
2018-01-01T00:02:37.406Z,6.11
2018-01-01T00:02:41.529Z,6.14
2018-01-01T00:02:45.443Z,6.1
2018-01-01T00:02:49.368Z,6.11
2018-01-01T00:02:53.168Z,6.1
2018-01-01T00:02:57.084Z,6.11
2018-01-01T00:03:01.007Z,6.1
2018-01-01T00:03:05.030Z,6.13
2018-01-01T00:03:08.846Z,6.1
2018-01-01T00:03:12.656Z,6.11
2018-01-01T00:03:16.672Z,6.1
2018-01-01T00:03:20.598Z,6.16
2018-01-01T00:03:24.623Z,6.05
2018-01-01T00:03:28.551Z,6.16
2018-01-01T00:03:32.455Z,6.1
2018-01-01T00:03:36.353Z,6.06
2018-01-01T00:03:40.256Z,6.1
2018-01-01T00:03:43.944Z,6.1
2018-01-01T00:03:47.951Z,6.14
2018-01-01T00:03:51.968Z,6.13
2018-01-01T00:03:55.898Z,6.11
2018-01-01T00:03:59.710Z,6.11
2018-01-01T00:04:03.516Z,6.14
2018-01-01T00:04:07.670Z,6.03
2018-01-01T00:04:11.716Z,6.14
2018-01-01T00:04:15.721Z,6.16
2018-01-01T00:04:19.630Z,6.13
2018-01-01T00:04:23.318Z,6.1
2018-01-01T00:04:27.246Z,6.11
2018-01-01T00:04:31.064Z,6.16
2018-01-01T00:04:34.865Z,6.06
2018-01-01T00:04:38.779Z,6.11
2018-01-01T00:04:42.477Z,6.13
2018-01-01T00:04:46.433Z,6.14
2018-01-01T00:04:50.231Z,6.14
2018-01-01T00:04:54.049Z,6.06
2018-01-01T00:04:57.958Z,6.1
2018-01-01T00:05:02.197Z,6.16
2018-01-01T00:05:06.229Z,6.14
2018-01-01T00:05:10.060Z,6.17
2018-01-01T00:05:14.182Z,6.14
2018-01-01T00:05:18.087Z,6.11
2018-01-01T00:05:22.012Z,6.11
2018-01-01T00:05:26.121Z,6.1
2018-01-01T00:05:29.937Z,6.16
2018-01-01T00:05:33.960Z,6.05
2018-01-01T00:05:38.071Z,6.13
2018-01-01T00:05:41.990Z,6.05
2018-01-01T00:05:45.804Z,6.08
2018-01-01T00:05:49.734Z,6.17
2018-01-01T00:05:53.753Z,6.08
2018-01-01T00:05:57.574Z,6.14
2018-01-01T00:06:01.283Z,6.17
2018-01-01T00:06:05.305Z,6.06
2018-01-01T00:06:09.319Z,6.06
2018-01-01T00:06:13.129Z,6.1
2018-01-01T00:06:17.049Z,6.05
2018-01-01T00:06:20.941Z,6.05
2018-01-01T00:06:24.948Z,6.17
2018-01-01T00:06:28.854Z,6.05
2018-01-01T00:06:32.759Z,6.1
2018-01-01T00:06:36.878Z,6.14
2018-01-01T00:06:40.900Z,6.06
2018-01-01T00:06:44.599Z,6.08
2018-01-01T00:06:48.502Z,6.02
2018-01-01T00:06:52.504Z,6.16
2018-01-01T00:06:56.304Z,6.05
2018-01-01T00:07:00.110Z,6.16
2018-01-01T00:07:04.446Z,6.1
2018-01-01T00:07:08.908Z,6.1
2018-01-01T00:07:13.162Z,6.06
2018-01-01T00:07:17.079Z,6.06
2018-01-01T00:07:20.793Z,6.05
2018-01-01T00:07:24.701Z,6.16
2018-01-01T00:07:28.608Z,6.16
2018-01-01T00:07:32.316Z,6.16
2018-01-01T00:07:36.233Z,6.14
2018-01-01T00:07:40.050Z,6.14
2018-01-01T00:07:43.865Z,6.13
2018-01-01T00:07:47.659Z,6.06
2018-01-01T00:07:51.467Z,6.03
2018-01-01T00:07:55.472Z,6.08
2018-01-01T00:07:59.596Z,6.06
2018-01-01T00:08:03.452Z,6.03
2018-01-01T00:08:07.353Z,6.13
2018-01-01T00:08:11.177Z,6.06
2018-01-01T00:08:14.984Z,6.14
2018-01-01T00:08:19.334Z,6.11
2018-01-01T00:08:23.139Z,6.14
2018-01-01T00:08:26.939Z,6.16
2018-01-01T00:08:30.779Z,6.08
2018-01-01T00:08:34.794Z,6.08
2018-01-01T00:08:38.816Z,6.13
2018-01-01T00:08:42.835Z,6.06
2018-01-01T00:08:46.826Z,6.1
2018-01-01T00:08:50.731Z,6.05
2018-01-01T00:08:54.559Z,6.11
2018-01-01T00:08:58.364Z,6.14
2018-01-01T00:09:02.647Z,6.08
2018-01-01T00:09:06.784Z,6.17
2018-01-01T00:09:10.603Z,6.06
2018-01-01T00:09:14.401Z,6.17
2018-01-01T00:09:18.403Z,6.05
2018-01-01T00:09:22.218Z,6.08
2018-01-01T00:09:26.136Z,6.08
2018-01-01T00:09:29.950Z,6.05
2018-01-01T00:09:33.760Z,6.08
2018-01-01T00:09:37.682Z,6.16
2018-01-01T00:09:41.594Z,6.19
2018-01-01T00:09:45.445Z,6.17
2018-01-01T00:09:49.370Z,6.17
2018-01-01T00:09:53.492Z,6.05
2018-01-01T00:09:57.405Z,6.05
2018-01-01T00:10:01.223Z,6.05
2018-01-01T00:10:05.334Z,6.05
2018-01-01T00:10:09.264Z,6.06
2018-01-01T00:10:13.064Z,6.1
2018-01-01T00:10:17.181Z,6.19
2018-01-01T00:10:21.203Z,6.08
2018-01-01T00:10:24.998Z,6.14
2018-01-01T00:10:28.792Z,6.06
2018-01-01T00:10:32.826Z,6.16
2018-01-01T00:10:36.725Z,6.1
2018-01-01T00:10:40.755Z,6.11
2018-01-01T00:10:44.685Z,6.06
2018-01-01T00:10:48.696Z,6.08
2018-01-01T00:10:52.404Z,6.14
2018-01-01T00:10:56.104Z,6.1
2018-01-01T00:10:59.924Z,6.03
2018-01-01T00:11:03.781Z,6.14
2018-01-01T00:11:07.585Z,6.11
2018-01-01T00:11:11.498Z,6.11
2018-01-01T00:11:15.398Z,6.01
2018-01-01T00:11:19.631Z,6.06
2018-01-01T00:11:23.547Z,6.14
2018-01-01T00:11:27.449Z,6.16
2018-01-01T00:11:31.465Z,6.14
2018-01-01T00:11:35.148Z,6.11
2018-01-01T00:11:39.076Z,6.14
2018-01-01T00:11:42.863Z,6.14
2018-01-01T00:11:46.662Z,6.14
2018-01-01T00:11:50.577Z,6.06
2018-01-01T00:11:54.370Z,6.14
2018-01-01T00:11:58.181Z,6.19
2018-01-01T00:12:02.175Z,6.13
2018-01-01T00:12:06.201Z,6.06
2018-01-01T00:12:09.919Z,6.17
2018-01-01T00:12:13.950Z,6.06
2018-01-01T00:12:18.087Z,6.13
2018-01-01T00:12:21.894Z,6.05
2018-01-01T00:12:25.700Z,6.05
2018-01-01T00:12:29.715Z,6.16
2018-01-01T00:12:33.527Z,6.05
2018-01-01T00:12:37.555Z,6.11
2018-01-01T00:12:41.353Z,6.14
2018-01-01T00:12:45.273Z,6.14
2018-01-01T00:12:49.175Z,6.14
2018-01-01T00:12:53.026Z,6.14
2018-01-01T00:12:57.427Z,6.03
2018-01-01T00:13:01.241Z,6.1
2018-01-01T00:13:05.151Z,6.17
2018-01-01T00:13:08.955Z,6.11
2018-01-01T00:13:12.671Z,6.16
2018-01-01T00:13:16.366Z,6.08
2018-01-01T00:13:20.376Z,6.11
2018-01-01T00:13:24.291Z,6.16
2018-01-01T00:13:28.186Z,6.08
2018-01-01T00:13:32.007Z,6.1
2018-01-01T00:13:36.134Z,6.1
2018-01-01T00:13:39.834Z,6.16
2018-01-01T00:13:43.881Z,6.2
2018-01-01T00:13:47.790Z,6.13
2018-01-01T00:13:51.910Z,6.05
2018-01-01T00:13:55.910Z,6.16
2018-01-01T00:13:59.720Z,6.16
2018-01-01T00:14:03.937Z,6.13
2018-01-01T00:14:07.754Z,6.14
2018-01-01T00:14:11.768Z,6.19
2018-01-01T00:14:15.668Z,6.14
2018-01-01T00:14:19.354Z,6.21
2018-01-01T00:14:23.161Z,6.05
2018-01-01T00:14:27.270Z,6.17
2018-01-01T00:14:31.074Z,6.2
2018-01-01T00:14:34.984Z,6.16
2018-01-01T00:14:38.686Z,6.16
2018-01-01T00:14:42.505Z,6.17
2018-01-01T00:14:46.429Z,6.1
2018-01-01T00:14:50.440Z,6.11
2018-01-01T00:14:54.467Z,6.16
2018-01-01T00:14:58.373Z,6.1
2018-01-01T00:15:02.329Z,6.13
2018-01-01T00:15:06.144Z,6.11
2018-01-01T00:15:09.856Z,6.11
2018-01-01T00:15:13.652Z,6.1
2018-01-01T00:15:17.557Z,6.11
2018-01-01T00:15:21.458Z,6.13
2018-01-01T00:15:25.254Z,6.13
2018-01-01T00:15:28.955Z,6.19
2018-01-01T00:15:32.981Z,6.14
2018-01-01T00:15:36.892Z,6.11
2018-01-01T00:15:40.804Z,6.21
2018-01-01T00:15:44.624Z,6.16
2018-01-01T00:15:48.421Z,6.14
2018-01-01T00:15:52.342Z,6.14
2018-01-01T00:15:56.259Z,6.11
2018-01-01T00:16:00.071Z,6.17
2018-01-01T00:16:03.983Z,6.19
2018-01-01T00:16:07.888Z,6.14
2018-01-01T00:16:11.905Z,6.16
2018-01-01T00:16:15.923Z,6.16
2018-01-01T00:16:19.622Z,6.13
2018-01-01T00:16:23.440Z,6.14
2018-01-01T00:16:27.356Z,6.14
2018-01-01T00:16:31.155Z,6.1
2018-01-01T00:16:34.947Z,6.1
2018-01-01T00:16:38.962Z,6.13
2018-01-01T00:16:42.762Z,6.14
2018-01-01T00:16:46.476Z,6.14
2018-01-01T00:16:50.298Z,6.17
2018-01-01T00:16:54.524Z,6.14
2018-01-01T00:16:58.218Z,6.13
2018-01-01T00:17:02.323Z,6.13
2018-01-01T00:17:06.245Z,6.19
2018-01-01T00:17:10.056Z,6.13
2018-01-01T00:17:13.931Z,6.13
2018-01-01T00:17:17.643Z,6.16
2018-01-01T00:17:21.557Z,6.1
2018-01-01T00:17:25.467Z,6.17
2018-01-01T00:17:29.399Z,6.16
2018-01-01T00:17:33.317Z,6.25
2018-01-01T00:17:37.338Z,6.19
2018-01-01T00:17:41.151Z,6.13
2018-01-01T00:17:45.067Z,6.21
2018-01-01T00:17:48.972Z,6.25
2018-01-01T00:17:52.768Z,6.28
2018-01-01T00:17:56.665Z,6.1
2018-01-01T00:18:00.896Z,6.17
2018-01-01T00:18:04.870Z,6.16
2018-01-01T00:18:08.901Z,6.16
2018-01-01T00:18:12.693Z,6.19
2018-01-01T00:18:16.803Z,6.25
2018-01-01T00:18:20.613Z,6.19
2018-01-01T00:18:24.526Z,6.25
2018-01-01T00:18:28.437Z,6.11
2018-01-01T00:18:32.301Z,6.27
2018-01-01T00:18:36.334Z,6.2
2018-01-01T00:18:40.241Z,6.28
2018-01-01T00:18:44.112Z,6.25
2018-01-01T00:18:47.909Z,6.2
2018-01-01T00:18:51.821Z,6.19
2018-01-01T00:18:55.738Z,6.19
2018-01-01T00:18:59.437Z,6.2
2018-01-01T00:19:03.611Z,6.16
2018-01-01T00:19:07.528Z,6.21
2018-01-01T00:19:11.417Z,6.28
2018-01-01T00:19:15.214Z,6.3
2018-01-01T00:19:19.011Z,6.25
2018-01-01T00:19:22.795Z,6.2
2018-01-01T00:19:26.826Z,6.2
2018-01-01T00:19:30.727Z,6.27
2018-01-01T00:19:34.626Z,6.27
2018-01-01T00:19:38.415Z,6.27
2018-01-01T00:19:42.119Z,6.21
2018-01-01T00:19:46.044Z,6.3
2018-01-01T00:19:49.983Z,6.33
2018-01-01T00:19:53.780Z,6.17
2018-01-01T00:19:57.495Z,6.2
2018-01-01T00:20:01.297Z,6.25
2018-01-01T00:20:05.160Z,6.21
2018-01-01T00:20:08.966Z,6.21
2018-01-01T00:20:12.760Z,6.24
2018-01-01T00:20:16.677Z,6.2
2018-01-01T00:20:20.378Z,6.36
2018-01-01T00:20:24.401Z,6.32
2018-01-01T00:20:28.200Z,6.27
2018-01-01T00:20:32.142Z,6.28
2018-01-01T00:20:35.861Z,6.24
2018-01-01T00:20:39.783Z,6.24
2018-01-01T00:20:43.482Z,6.32
2018-01-01T00:20:47.389Z,6.3
2018-01-01T00:20:51.285Z,6.28
2018-01-01T00:20:55.089Z,6.3
2018-01-01T00:20:58.915Z,6.24
2018-01-01T00:21:02.978Z,6.27
2018-01-01T00:21:06.686Z,6.2
2018-01-01T00:21:10.904Z,6.25
2018-01-01T00:21:14.609Z,6.28
2018-01-01T00:21:18.632Z,6.24
2018-01-01T00:21:22.343Z,6.25
2018-01-01T00:21:26.266Z,6.25
2018-01-01T00:21:29.972Z,6.24
2018-01-01T00:21:33.664Z,6.25
2018-01-01T00:21:37.369Z,6.28
2018-01-01T00:21:41.194Z,6.25
2018-01-01T00:21:45.209Z,6.25
2018-01-01T00:21:49.125Z,6.27
2018-01-01T00:21:52.942Z,6.25
2018-01-01T00:21:56.840Z,6.28
2018-01-01T00:22:00.753Z,6.32
2018-01-01T00:22:04.730Z,6.27
2018-01-01T00:22:08.756Z,6.21
2018-01-01T00:22:12.662Z,6.25
2018-01-01T00:22:16.697Z,6.27
2018-01-01T00:22:20.485Z,6.24
2018-01-01T00:22:24.594Z,6.25
2018-01-01T00:22:28.403Z,6.32
2018-01-01T00:22:32.197Z,6.32
2018-01-01T00:22:36.108Z,6.32
2018-01-01T00:22:40.010Z,6.32
2018-01-01T00:22:43.921Z,6.25
2018-01-01T00:22:47.838Z,6.32
2018-01-01T00:22:51.536Z,6.27
2018-01-01T00:22:55.457Z,6.25
2018-01-01T00:22:59.373Z,6.25
2018-01-01T00:23:03.389Z,6.21
2018-01-01T00:23:07.316Z,6.3
2018-01-01T00:23:11.124Z,6.28
2018-01-01T00:23:15.052Z,6.27
2018-01-01T00:23:18.752Z,6.32
2018-01-01T00:23:22.652Z,6.27
2018-01-01T00:23:26.564Z,6.38
2018-01-01T00:23:30.484Z,6.36
2018-01-01T00:23:34.384Z,6.32
2018-01-01T00:23:38.097Z,6.33
2018-01-01T00:23:41.776Z,6.38
2018-01-01T00:23:45.588Z,6.3
2018-01-01T00:23:49.439Z,6.38
2018-01-01T00:23:53.595Z,6.35
2018-01-01T00:23:57.400Z,6.35
2018-01-01T00:24:01.318Z,6.32
2018-01-01T00:24:05.549Z,6.32
2018-01-01T00:24:09.367Z,6.33
2018-01-01T00:24:13.286Z,6.38
2018-01-01T00:24:17.422Z,6.35
2018-01-01T00:24:21.218Z,6.35
2018-01-01T00:24:25.011Z,6.33
2018-01-01T00:24:28.805Z,6.36
2018-01-01T00:24:32.816Z,6.38
2018-01-01T00:24:36.603Z,6.32
2018-01-01T00:24:40.628Z,6.35
2018-01-01T00:24:44.550Z,6.3
2018-01-01T00:24:48.463Z,6.4
2018-01-01T00:24:52.387Z,6.38
2018-01-01T00:24:56.399Z,6.38
2018-01-01T00:25:00.203Z,6.36
2018-01-01T00:25:04.250Z,6.35
2018-01-01T00:25:08.065Z,6.33
2018-01-01T00:25:11.877Z,6.39
2018-01-01T00:25:15.681Z,6.28
2018-01-01T00:25:19.601Z,6.3
2018-01-01T00:25:23.720Z,6.32
2018-01-01T00:25:27.635Z,6.33
2018-01-01T00:25:31.548Z,6.39
2018-01-01T00:25:35.355Z,6.33
2018-01-01T00:25:39.044Z,6.39
2018-01-01T00:25:42.851Z,6.32
2018-01-01T00:25:46.659Z,6.42
2018-01-01T00:25:50.686Z,6.32
2018-01-01T00:25:54.495Z,6.36
2018-01-01T00:25:58.419Z,6.46
2018-01-01T00:26:02.111Z,6.39
2018-01-01T00:26:06.141Z,6.42
2018-01-01T00:26:10.064Z,6.35
2018-01-01T00:26:13.977Z,6.36
2018-01-01T00:26:17.790Z,6.38
2018-01-01T00:26:21.693Z,6.42
2018-01-01T00:26:25.601Z,6.4
2018-01-01T00:26:29.614Z,6.33
2018-01-01T00:26:33.513Z,6.39
2018-01-01T00:26:37.515Z,6.39
2018-01-01T00:26:41.439Z,6.36
2018-01-01T00:26:45.337Z,6.35
2018-01-01T00:26:49.358Z,6.39
2018-01-01T00:26:53.167Z,6.4
2018-01-01T00:26:57.192Z,6.36
2018-01-01T00:27:01.196Z,6.45
2018-01-01T00:27:05.216Z,6.28
2018-01-01T00:27:09.245Z,6.39
2018-01-01T00:27:13.048Z,6.28
2018-01-01T00:27:16.949Z,6.45
2018-01-01T00:27:20.975Z,6.39
2018-01-01T00:27:24.990Z,6.35
2018-01-01T00:27:29.016Z,6.42
2018-01-01T00:27:32.973Z,6.45
2018-01-01T00:27:36.678Z,6.42
2018-01-01T00:27:40.371Z,6.39
2018-01-01T00:27:44.395Z,6.38
2018-01-01T00:27:48.505Z,6.53
2018-01-01T00:27:52.425Z,6.43
2018-01-01T00:27:56.555Z,6.42
2018-01-01T00:28:00.451Z,6.42
2018-01-01T00:28:04.373Z,6.35
2018-01-01T00:28:08.279Z,6.38
2018-01-01T00:28:12.273Z,6.5
2018-01-01T00:28:15.976Z,6.46
2018-01-01T00:28:19.996Z,6.42
2018-01-01T00:28:24.007Z,6.42
2018-01-01T00:28:27.819Z,6.39
2018-01-01T00:28:31.733Z,6.43
2018-01-01T00:28:35.528Z,6.43
2018-01-01T00:28:39.537Z,6.43
2018-01-01T00:28:43.460Z,6.4
2018-01-01T00:28:47.472Z,6.4
2018-01-01T00:28:51.488Z,6.4
2018-01-01T00:28:55.719Z,6.4
2018-01-01T00:29:00.064Z,6.43
2018-01-01T00:29:04.280Z,6.39
2018-01-01T00:29:08.183Z,6.45
2018-01-01T00:29:11.884Z,6.46
2018-01-01T00:29:15.577Z,6.45
2018-01-01T00:29:19.386Z,6.48
2018-01-01T00:29:23.185Z,6.45
2018-01-01T00:29:26.987Z,6.39
2018-01-01T00:29:30.886Z,6.42
2018-01-01T00:29:34.673Z,6.46
2018-01-01T00:29:38.572Z,6.51
2018-01-01T00:29:42.590Z,6.51
2018-01-01T00:29:46.596Z,6.5
2018-01-01T00:29:50.458Z,6.48
2018-01-01T00:29:54.383Z,6.57
2018-01-01T00:29:58.090Z,6.51
2018-01-01T00:30:02.455Z,6.53
2018-01-01T00:30:06.472Z,6.53
2018-01-01T00:30:10.447Z,6.53
2018-01-01T00:30:14.564Z,6.53
2018-01-01T00:30:18.568Z,6.54
2018-01-01T00:30:22.702Z,6.55
2018-01-01T00:30:26.608Z,6.53
2018-01-01T00:30:30.570Z,6.53
2018-01-01T00:30:34.479Z,6.54
2018-01-01T00:30:38.388Z,6.53
2018-01-01T00:30:42.306Z,6.57
2018-01-01T00:30:46.213Z,6.51
2018-01-01T00:30:49.915Z,6.55
2018-01-01T00:30:53.936Z,6.6
2018-01-01T00:30:57.926Z,6.57
2018-01-01T00:31:01.887Z,6.6
2018-01-01T00:31:05.943Z,6.54
2018-01-01T00:31:10.005Z,6.63
2018-01-01T00:31:14.035Z,6.61
2018-01-01T00:31:17.841Z,6.55
2018-01-01T00:31:21.962Z,6.57
2018-01-01T00:31:25.872Z,6.57
2018-01-01T00:31:29.666Z,6.61
2018-01-01T00:31:33.579Z,6.55
2018-01-01T00:31:37.718Z,6.63
2018-01-01T00:31:41.740Z,6.54
2018-01-01T00:31:45.757Z,6.57
2018-01-01T00:31:49.566Z,6.55
2018-01-01T00:31:53.489Z,6.57
2018-01-01T00:31:57.392Z,6.63
2018-01-01T00:32:01.422Z,6.6
2018-01-01T00:32:05.633Z,6.57
2018-01-01T00:32:09.772Z,6.64
2018-01-01T00:32:13.687Z,6.63
2018-01-01T00:32:17.496Z,6.65
2018-01-01T00:32:21.523Z,6.6
2018-01-01T00:32:25.330Z,6.65
2018-01-01T00:32:29.154Z,6.64
2018-01-01T00:32:32.855Z,6.71
2018-01-01T00:32:36.871Z,6.63
2018-01-01T00:32:41.115Z,6.65
2018-01-01T00:32:44.826Z,6.64
2018-01-01T00:32:48.767Z,6.69
2018-01-01T00:32:52.465Z,6.63
2018-01-01T00:32:56.266Z,6.65
2018-01-01T00:33:00.169Z,6.65
2018-01-01T00:33:04.297Z,6.69
2018-01-01T00:33:08.103Z,6.69
2018-01-01T00:33:12.114Z,6.65
2018-01-01T00:33:16.015Z,6.72
2018-01-01T00:33:20.020Z,6.71
2018-01-01T00:33:23.919Z,6.68
2018-01-01T00:33:27.939Z,6.73
2018-01-01T00:33:31.750Z,6.71
2018-01-01T00:33:35.667Z,6.65
2018-01-01T00:33:39.570Z,6.65
2018-01-01T00:33:43.262Z,6.65
2018-01-01T00:33:47.171Z,6.68
2018-01-01T00:33:51.085Z,6.65
2018-01-01T00:33:55.000Z,6.71
2018-01-01T00:33:58.816Z,6.78
2018-01-01T00:34:02.737Z,6.79
2018-01-01T00:34:06.862Z,6.71
2018-01-01T00:34:10.569Z,6.78
2018-01-01T00:34:14.364Z,6.72
2018-01-01T00:34:18.154Z,6.72
2018-01-01T00:34:22.327Z,6.76
2018-01-01T00:34:26.507Z,6.78
2018-01-01T00:34:30.213Z,6.79
2018-01-01T00:34:34.122Z,6.76
2018-01-01T00:34:38.022Z,6.79
2018-01-01T00:34:42.047Z,6.75
2018-01-01T00:34:45.742Z,6.82
2018-01-01T00:34:49.540Z,6.73
2018-01-01T00:34:53.350Z,6.76
2018-01-01T00:34:57.263Z,6.71
2018-01-01T00:35:01.075Z,6.73
2018-01-01T00:35:04.976Z,6.81
2018-01-01T00:35:08.981Z,6.81
2018-01-01T00:35:12.884Z,6.86
2018-01-01T00:35:16.905Z,6.76
2018-01-01T00:35:20.920Z,6.87
2018-01-01T00:35:24.839Z,6.83
2018-01-01T00:35:28.963Z,6.76
2018-01-01T00:35:32.881Z,6.79
2018-01-01T00:35:36.676Z,6.89
2018-01-01T00:35:40.685Z,6.82
2018-01-01T00:35:44.812Z,6.82
2018-01-01T00:35:48.839Z,6.83
2018-01-01T00:35:52.749Z,6.87
2018-01-01T00:35:56.767Z,6.86
2018-01-01T00:36:00.776Z,6.89
2018-01-01T00:36:04.581Z,6.76
2018-01-01T00:36:08.527Z,6.86
2018-01-01T00:36:12.435Z,6.89
2018-01-01T00:36:16.127Z,6.89
2018-01-01T00:36:20.036Z,6.86
2018-01-01T00:36:24.053Z,6.93
2018-01-01T00:36:28.235Z,6.9
2018-01-01T00:36:32.053Z,6.93
2018-01-01T00:36:35.861Z,6.9
2018-01-01T00:36:39.861Z,6.94
2018-01-01T00:36:43.777Z,6.96
2018-01-01T00:36:47.592Z,6.97
2018-01-01T00:36:51.291Z,6.96
2018-01-01T00:36:55.301Z,6.93
2018-01-01T00:36:59.324Z,6.93
2018-01-01T00:37:03.391Z,6.93
2018-01-01T00:37:07.402Z,6.93
2018-01-01T00:37:11.323Z,6.94
2018-01-01T00:37:15.125Z,7
2018-01-01T00:37:18.945Z,6.99
2018-01-01T00:37:22.950Z,6.96
2018-01-01T00:37:26.758Z,7
2018-01-01T00:37:30.467Z,7
2018-01-01T00:37:34.370Z,7.01
2018-01-01T00:37:38.180Z,7
2018-01-01T00:37:42.217Z,6.99
2018-01-01T00:37:46.135Z,7.07
2018-01-01T00:37:49.840Z,7.04
2018-01-01T00:37:53.856Z,7.04
2018-01-01T00:37:57.769Z,7.01
2018-01-01T00:38:01.464Z,7.05
2018-01-01T00:38:05.368Z,6.96
2018-01-01T00:38:09.281Z,7.07
2018-01-01T00:38:13.406Z,7.01
2018-01-01T00:38:17.521Z,7.01
2018-01-01T00:38:21.424Z,7.11
2018-01-01T00:38:25.556Z,7.05
2018-01-01T00:38:29.467Z,7.05
2018-01-01T00:38:33.273Z,7.05
2018-01-01T00:38:36.968Z,7.07
2018-01-01T00:38:40.789Z,7.12
2018-01-01T00:38:44.606Z,7.07
2018-01-01T00:38:48.504Z,7.08
2018-01-01T00:38:52.409Z,7.04
2018-01-01T00:38:56.316Z,7.11
2018-01-01T00:39:00.225Z,7.07
2018-01-01T00:39:04.182Z,7.12
2018-01-01T00:39:08.295Z,7.12
2018-01-01T00:39:12.109Z,7.15
2018-01-01T00:39:16.024Z,7.08
2018-01-01T00:39:19.943Z,7.15
2018-01-01T00:39:23.956Z,7.12
2018-01-01T00:39:27.989Z,7.07
2018-01-01T00:39:31.809Z,7.05
2018-01-01T00:39:35.743Z,7.19
2018-01-01T00:39:39.544Z,7.07
2018-01-01T00:39:43.360Z,7.08
2018-01-01T00:39:47.169Z,7.23
2018-01-01T00:39:51.282Z,7.07
2018-01-01T00:39:55.205Z,7.16
2018-01-01T00:39:59.033Z,7.23
2018-01-01T00:40:03.192Z,7.21
2018-01-01T00:40:07.411Z,7.26
2018-01-01T00:40:11.420Z,7.24
2018-01-01T00:40:15.125Z,7.23
2018-01-01T00:40:18.927Z,7.21
2018-01-01T00:40:22.842Z,7.26
2018-01-01T00:40:26.850Z,7.29
2018-01-01T00:40:30.768Z,7.18
2018-01-01T00:40:34.464Z,7.29
2018-01-01T00:40:38.361Z,7.26
2018-01-01T00:40:42.273Z,7.24
2018-01-01T00:40:45.979Z,7.21
2018-01-01T00:40:50.281Z,7.24
2018-01-01T00:40:54.087Z,7.24
2018-01-01T00:40:58.010Z,7.32
2018-01-01T00:41:02.043Z,7.36
2018-01-01T00:41:06.068Z,7.34
2018-01-01T00:41:09.761Z,7.27
2018-01-01T00:41:13.680Z,7.3
2018-01-01T00:41:17.907Z,7.37
2018-01-01T00:41:21.719Z,7.29
2018-01-01T00:41:25.847Z,7.39
2018-01-01T00:41:29.850Z,7.34
2018-01-01T00:41:33.638Z,7.33
2018-01-01T00:41:37.446Z,7.32
2018-01-01T00:41:41.152Z,7.33
2018-01-01T00:41:45.080Z,7.39
2018-01-01T00:41:49.113Z,7.33
2018-01-01T00:41:53.229Z,7.3
2018-01-01T00:41:57.415Z,7.44
2018-01-01T00:42:01.255Z,7.39
2018-01-01T00:42:05.328Z,7.39
2018-01-01T00:42:09.027Z,7.42
2018-01-01T00:42:13.157Z,7.41
2018-01-01T00:42:17.280Z,7.44
2018-01-01T00:42:21.079Z,7.41
2018-01-01T00:42:24.885Z,7.42
2018-01-01T00:42:28.797Z,7.39
2018-01-01T00:42:32.702Z,7.39
2018-01-01T00:42:36.721Z,7.37
2018-01-01T00:42:40.746Z,7.44
2018-01-01T00:42:44.440Z,7.44
2018-01-01T00:42:48.479Z,7.51
2018-01-01T00:42:52.273Z,7.48
2018-01-01T00:42:56.187Z,7.42
2018-01-01T00:42:59.886Z,7.47
2018-01-01T00:43:03.741Z,7.47
2018-01-01T00:43:07.556Z,7.45
2018-01-01T00:43:11.480Z,7.48
2018-01-01T00:43:15.402Z,7.45
2018-01-01T00:43:19.309Z,7.44
2018-01-01T00:43:23.119Z,7.45
2018-01-01T00:43:27.026Z,7.45
2018-01-01T00:43:31.144Z,7.48
2018-01-01T00:43:35.250Z,7.45
2018-01-01T00:43:39.049Z,7.54
2018-01-01T00:43:42.966Z,7.48
2018-01-01T00:43:47.083Z,7.41
2018-01-01T00:43:50.879Z,7.52
2018-01-01T00:43:54.593Z,7.51
2018-01-01T00:43:58.397Z,7.48
2018-01-01T00:44:02.606Z,7.5
2018-01-01T00:44:06.535Z,7.57
2018-01-01T00:44:10.560Z,7.47
2018-01-01T00:44:14.376Z,7.51
2018-01-01T00:44:18.291Z,7.54
2018-01-01T00:44:22.207Z,7.48
2018-01-01T00:44:26.243Z,7.62
2018-01-01T00:44:30.050Z,7.55
2018-01-01T00:44:34.186Z,7.63
2018-01-01T00:44:38.096Z,7.63
2018-01-01T00:44:42.120Z,7.6
2018-01-01T00:44:46.016Z,7.62
2018-01-01T00:44:49.941Z,7.58
2018-01-01T00:44:53.883Z,7.57
2018-01-01T00:44:57.807Z,7.63
2018-01-01T00:45:01.773Z,7.67
2018-01-01T00:45:05.796Z,7.57
2018-01-01T00:45:09.707Z,7.63
2018-01-01T00:45:13.526Z,7.66
2018-01-01T00:45:17.237Z,7.66
2018-01-01T00:45:21.150Z,7.58
2018-01-01T00:45:25.166Z,7.58
2018-01-01T00:45:29.068Z,7.79
2018-01-01T00:45:33.208Z,7.76
2018-01-01T00:45:37.015Z,7.69
2018-01-01T00:45:40.827Z,7.79
2018-01-01T00:45:44.830Z,7.6
2018-01-01T00:45:48.729Z,7.62
2018-01-01T00:45:52.428Z,7.76
2018-01-01T00:45:56.542Z,7.67
2018-01-01T00:46:00.345Z,7.73
2018-01-01T00:46:04.473Z,7.67
2018-01-01T00:46:08.184Z,7.67
2018-01-01T00:46:12.095Z,7.76
2018-01-01T00:46:15.992Z,7.71
2018-01-01T00:46:19.797Z,7.71
2018-01-01T00:46:23.804Z,7.69
2018-01-01T00:46:27.806Z,7.69
2018-01-01T00:46:31.806Z,7.82
2018-01-01T00:46:35.722Z,7.79
2018-01-01T00:46:39.630Z,7.81
2018-01-01T00:46:43.642Z,7.76
2018-01-01T00:46:47.553Z,7.76
2018-01-01T00:46:51.451Z,7.73
2018-01-01T00:46:55.533Z,7.79
2018-01-01T00:46:59.701Z,7.71
2018-01-01T00:47:03.417Z,7.76
2018-01-01T00:47:07.220Z,7.79
2018-01-01T00:47:10.917Z,7.82
2018-01-01T00:47:14.725Z,7.81
2018-01-01T00:47:18.417Z,7.77
2018-01-01T00:47:22.227Z,7.81
2018-01-01T00:47:26.251Z,7.81
2018-01-01T00:47:30.266Z,7.88
2018-01-01T00:47:34.069Z,7.79
2018-01-01T00:47:37.967Z,7.82
2018-01-01T00:47:41.878Z,7.82
2018-01-01T00:47:45.785Z,7.84
2018-01-01T00:47:49.906Z,7.89
2018-01-01T00:47:53.808Z,7.85
2018-01-01T00:47:57.831Z,7.92
2018-01-01T00:48:01.868Z,7.88
2018-01-01T00:48:05.572Z,7.86
2018-01-01T00:48:09.602Z,7.91
2018-01-01T00:48:13.527Z,7.89
2018-01-01T00:48:17.533Z,7.95
2018-01-01T00:48:21.363Z,7.88
2018-01-01T00:48:25.370Z,7.91
2018-01-01T00:48:29.397Z,7.96
2018-01-01T00:48:33.415Z,7.86
2018-01-01T00:48:37.558Z,7.92
2018-01-01T00:48:41.465Z,7.94
2018-01-01T00:48:45.381Z,7.91
2018-01-01T00:48:49.499Z,7.89
2018-01-01T00:48:53.628Z,7.96
2018-01-01T00:48:57.542Z,7.94
2018-01-01T00:49:01.359Z,8
2018-01-01T00:49:05.271Z,7.95
2018-01-01T00:49:09.084Z,7.89
2018-01-01T00:49:12.889Z,8.03
2018-01-01T00:49:16.932Z,8
2018-01-01T00:49:20.941Z,8.06
2018-01-01T00:49:25.054Z,8
2018-01-01T00:49:29.083Z,8.04
2018-01-01T00:49:32.917Z,8.02
2018-01-01T00:49:36.723Z,8.07
2018-01-01T00:49:40.736Z,8.02
2018-01-01T00:49:44.546Z,8.02
2018-01-01T00:49:48.551Z,8
2018-01-01T00:49:52.571Z,8.07
2018-01-01T00:49:56.386Z,8.04
2018-01-01T00:50:00.192Z,8.06
2018-01-01T00:50:04.099Z,8.09
2018-01-01T00:50:08.246Z,8.09
2018-01-01T00:50:12.152Z,8.02
2018-01-01T00:50:16.071Z,8.07
2018-01-01T00:50:20.293Z,8.07
2018-01-01T00:50:24.394Z,8.03
2018-01-01T00:50:28.206Z,7.96
2018-01-01T00:50:32.143Z,8.12
2018-01-01T00:50:35.847Z,8.14
2018-01-01T00:50:39.745Z,8.06
2018-01-01T00:50:43.663Z,8.09
2018-01-01T00:50:47.564Z,8.06
2018-01-01T00:50:51.472Z,8.09
2018-01-01T00:50:55.266Z,8.07
2018-01-01T00:50:59.157Z,8.09
2018-01-01T00:51:02.954Z,8.13
2018-01-01T00:51:06.649Z,8.09
2018-01-01T00:51:10.557Z,8.09
2018-01-01T00:51:14.360Z,8.07
2018-01-01T00:51:18.173Z,8.17
2018-01-01T00:51:22.210Z,8.07
2018-01-01T00:51:26.127Z,8.17
2018-01-01T00:51:30.035Z,8.12
2018-01-01T00:51:33.949Z,8.12
2018-01-01T00:51:37.660Z,8.1
2018-01-01T00:51:41.779Z,8.13
2018-01-01T00:51:45.583Z,8.1
2018-01-01T00:51:49.591Z,8.07
2018-01-01T00:51:53.504Z,8.13
2018-01-01T00:51:57.635Z,8.18
2018-01-01T00:52:01.547Z,8.21
2018-01-01T00:52:05.677Z,8.18
2018-01-01T00:52:09.513Z,8.21
2018-01-01T00:52:13.430Z,8.21
2018-01-01T00:52:17.441Z,8.12
2018-01-01T00:52:21.243Z,8.24
2018-01-01T00:52:25.344Z,8.24
2018-01-01T00:52:29.587Z,8.18
2018-01-01T00:52:33.730Z,8.2
2018-01-01T00:52:37.747Z,8.2
2018-01-01T00:52:41.564Z,8.2